Time;durP1;ratioP1;P1;durP2;ratioP2;P2;SDS_P1;SDS_P2;PMS_P1;PMS_P2;Temp;Humidity;BMP_temperature;BMP_pressure;BME280_temperature;BME280_humidity;BME280_pressure;Samples;Min_cycle;Max_cycle;Signal;HPM_P1;HPM_P2
2024/04/11 00:02:14;;;;;;;0.40;0.40;;;;;;;12.15;64.48;100700.19;5453717;26;20009;-65
2024/04/11 00:04:42;;;;;;;1.55;0.95;;;;;;;12.12;64.56;100692.50;5454510;26;20075;-65
2024/04/11 00:07:13;;;;;;;0.80;0.80;;;;;;;12.10;64.32;100690.78;5454287;26;20071;-64
2024/04/11 00:09:41;;;;;;;0.57;0.57;;;;;;;12.13;64.28;100696.75;5454316;26;20003;-66
2024/04/11 00:12:12;;;;;;;1.50;1.40;;;;;;;12.10;64.61;100688.22;5454280;26;20040;-65
2024/04/11 00:14:42;;;;;;;1.23;1.00;;;;;;;12.13;64.66;100691.66;5454146;26;20353;-65
2024/04/11 00:17:15;;;;;;;0.75;0.75;;;;;;;12.07;64.57;100687.31;5454477;26;20001;-65
2024/04/11 00:19:43;;;;;;;0.88;0.88;;;;;;;12.00;64.83;100671.06;5452537;26;20013;-65
2024/04/11 00:22:13;;;;;;;0.70;0.70;;;;;;;12.07;64.87;100693.31;5454173;26;20014;-64
2024/04/11 00:24:41;;;;;;;1.20;0.80;;;;;;;12.05;64.86;100694.13;5452252;26;20011;-64
2024/04/11 00:27:12;;;;;;;0.85;0.82;;;;;;;12.05;65.51;100689.00;5422247;26;20035;-65
2024/04/11 00:29:40;;;;;;;0.77;0.77;;;;;;;12.07;64.70;100684.75;5454408;26;20035;-66
2024/04/11 00:32:11;;;;;;;0.80;0.80;;;;;;;12.05;65.36;100691.56;5453677;26;20009;-65
2024/04/11 00:34:43;;;;;;;0.70;0.70;;;;;;;12.02;65.10;100699.25;5454217;26;20010;-65
2024/04/11 00:37:15;;;;;;;0.88;0.73;;;;;;;12.00;65.55;100696.66;5453937;26;20014;-65
2024/04/11 00:39:43;;;;;;;1.15;1.02;;;;;;;11.99;65.54;100705.19;5453726;26;20006;-65
2024/04/11 00:42:14;;;;;;;1.30;1.20;;;;;;;12.00;65.39;100701.75;5453823;26;20014;-65
2024/04/11 00:44:43;;;;;;;0.60;0.60;;;;;;;12.01;65.89;100707.75;5452060;26;20045;-65
2024/04/11 00:47:15;;;;;;;0.40;0.40;;;;;;;11.94;66.34;100711.09;5453876;26;20015;-65
2024/04/11 00:49:47;;;;;;;4.75;1.80;;;;;;;11.91;65.94;100714.47;5453984;26;20003;-66
2024/04/11 00:52:18;;;;;;;0.52;0.52;;;;;;;11.83;65.99;100690.50;5453556;26;20039;-65
2024/04/11 00:54:46;;;;;;;1.00;0.85;;;;;;;11.84;66.32;100707.56;5453918;26;20014;-65
2024/04/11 00:57:17;;;;;;;0.82;0.82;;;;;;;11.88;66.22;100711.88;5453360;26;19999;-65
2024/04/11 00:59:48;;;;;;;4.22;1.67;;;;;;;11.89;66.22;100713.59;5453415;26;20027;-65
2024/04/11 01:02:19;;;;;;;1.63;1.42;;;;;;;11.85;66.96;100714.38;5453379;26;20003;-65
2024/04/11 01:04:50;;;;;;;0.98;0.98;;;;;;;11.89;66.63;100712.75;5453851;26;20029;-66
2024/04/11 01:07:21;;;;;;;2.40;1.40;;;;;;;11.89;66.55;100710.19;5453302;26;20007;-66
2024/04/11 01:09:48;;;;;;;0.70;0.70;;;;;;;11.86;67.13;100718.69;5453353;26;19999;-65
2024/04/11 01:12:21;;;;;;;0.65;0.65;;;;;;;11.85;67.33;100711.84;5453096;26;20010;-65
2024/04/11 01:14:50;;;;;;;0.60;0.60;;;;;;;11.84;67.28;100712.69;5455906;26;20456;-65
2024/04/11 01:17:21;;;;;;;0.57;0.57;;;;;;;11.72;67.20;100698.91;5454829;26;20039;-65
2024/04/11 01:19:52;;;;;;;5.03;1.50;;;;;;;11.83;67.51;100710.97;5455103;26;20366;-66
2024/04/11 01:22:23;;;;;;;0.45;0.45;;;;;;;11.83;67.38;100713.53;5456722;26;20010;-65
2024/04/11 01:24:53;;;;;;;0.50;0.50;;;;;;;11.79;67.38;100709.22;5456724;26;20070;-65
2024/04/11 01:27:24;;;;;;;1.25;0.88;;;;;;;11.82;67.78;100719.50;5456801;26;19998;-65
2024/04/11 01:29:52;;;;;;;2.35;0.85;;;;;;;11.84;67.21;100720.38;5456386;26;20006;-65
2024/04/11 01:32:22;;;;;;;0.68;0.47;;;;;;;11.87;67.33;100728.09;5456117;26;20027;-65
2024/04/11 01:34:56;;;;;;;0.60;0.60;;;;;;;11.79;67.38;100722.00;5454802;26;20469;-65
2024/04/11 01:37:28;;;;;;;0.88;0.88;;;;;;;11.70;67.49;100727.03;5456734;26;20564;-66
2024/04/11 01:39:59;;;;;;;0.55;0.55;;;;;;;11.68;68.25;100736.38;5456700;26;19998;-65
2024/04/11 01:42:30;;;;;;;1.02;1.02;;;;;;;11.60;67.97;100730.28;5456492;26;20007;-65
2024/04/11 01:44:59;;;;;;;0.57;0.57;;;;;;;11.61;68.25;100724.34;5456775;26;20003;-65
2024/04/11 01:47:30;;;;;;;0.40;0.40;;;;;;;11.64;68.37;100731.16;5456438;26;20075;-66
2024/04/11 01:49:58;;;;;;;1.30;1.20;;;;;;;11.63;68.26;100737.13;5456753;26;20322;-66
2024/04/11 01:52:29;;;;;;;0.50;0.50;;;;;;;11.61;68.00;100736.25;5456430;26;20002;-66
2024/04/11 01:55:00;;;;;;;0.65;0.63;;;;;;;11.60;68.61;100737.97;5456217;26;20015;-66
2024/04/11 01:57:32;;;;;;;1.08;1.00;;;;;;;11.58;68.38;100737.09;5456179;26;20452;-66
2024/04/11 02:00:00;;;;;;;0.68;0.63;;;;;;;11.57;68.30;100737.91;5456136;26;20003;-65
2024/04/11 02:02:40;;;;;;;1.30;1.20;;;;;;;11.56;68.53;100738.75;5456485;26;20015;-65
2024/04/11 02:05:09;;;;;;;0.55;0.55;;;;;;;11.53;68.97;100738.72;5424300;26;20013;-65
2024/04/11 02:07:40;;;;;;;0.65;0.65;;;;;;;11.55;68.63;100739.59;5454335;26;20006;-65
2024/04/11 02:10:11;;;;;;;1.67;1.42;;;;;;;11.52;68.88;100742.09;5456454;26;20007;-65
2024/04/11 02:12:42;;;;;;;3.38;0.80;;;;;;;11.47;68.84;100738.63;5424431;26;20077;-65
2024/04/11 02:15:10;;;;;;;0.50;0.50;;;;;;;11.44;68.89;100729.22;5454446;26;20040;-65
2024/04/11 02:17:40;;;;;;;0.57;0.57;;;;;;;11.48;69.06;100737.81;5455905;26;19999;-65
2024/04/11 02:20:10;;;;;;;0.98;0.80;;;;;;;11.48;69.08;100740.34;5456078;26;20040;-66
2024/04/11 02:22:41;;;;;;;0.38;0.38;;;;;;;11.45;69.00;100745.44;5455875;26;20414;-65
2024/04/11 02:25:13;;;;;;;0.52;0.52;;;;;;;11.41;69.62;100749.66;5455216;26;20518;-65
2024/04/11 02:27:45;;;;;;;4.15;0.98;;;;;;;11.37;69.67;100747.03;5454439;26;20039;-66
2024/04/11 02:30:13;;;;;;;4.55;0.85;;;;;;;11.33;69.74;100750.38;5455825;26;19999;-65
2024/04/11 02:32:44;;;;;;;0.70;0.55;;;;;;;11.34;69.89;100745.31;5455702;26;20039;-66
2024/04/11 02:35:14;;;;;;;0.52;0.52;;;;;;;11.29;69.93;100739.28;5455860;26;20031;-65
2024/04/11 02:37:44;;;;;;;0.80;0.80;;;;;;;11.27;70.06;100743.50;5455689;26;20010;-65
2024/04/11 02:40:15;;;;;;;0.75;0.75;;;;;;;11.20;69.76;100728.06;5455780;26;20031;-65
2024/04/11 02:42:46;;;;;;;1.20;0.93;;;;;;;11.33;69.57;100745.25;5455645;26;20003;-65
2024/04/11 02:45:15;;;;;;;0.40;0.40;;;;;;;11.23;69.64;100738.31;5455902;26;20031;-65
2024/04/11 02:47:46;;;;;;;1.15;1.05;;;;;;;11.29;70.11;100748.63;5455438;26;20014;-65
2024/04/11 02:50:15;;;;;;;0.70;0.70;;;;;;;11.29;69.75;100751.19;5455681;26;20035;-65
2024/04/11 02:52:46;;;;;;;1.00;0.82;;;;;;;11.28;70.04;100741.78;5455303;26;20489;-65
2024/04/11 02:55:17;;;;;;;0.80;0.80;;;;;;;11.28;69.95;100752.00;5455422;26;20126;-65
2024/04/11 02:57:48;;;;;;;1.00;0.98;;;;;;;11.16;70.25;100746.72;5453492;26;19999;-65
2024/04/11 03:00:19;;;;;;;1.38;1.27;;;;;;;11.10;70.61;100747.53;5455200;26;20344;-65
2024/04/11 03:02:47;;;;;;;0.73;0.60;;;;;;;11.03;70.82;100743.16;5455665;26;20013;-65
2024/04/11 03:05:19;;;;;;;0.50;0.50;;;;;;;11.03;71.20;100740.59;5455379;26;20011;-65
2024/04/11 03:07:49;;;;;;;2.28;1.15;;;;;;;11.05;71.22;100735.50;5455371;26;20014;-65
2024/04/11 03:10:22;;;;;;;;;;;;;;;11.06;70.92;100739.81;5455631;26;20075;-65
2024/04/11 03:12:51;;;;;;;0.60;0.60;;;;;;;11.08;71.09;100743.22;5455111;26;20328;-65
2024/04/11 03:15:21;;;;;;;0.60;0.60;;;;;;;11.11;71.19;100748.38;5455035;26;20017;-66
2024/04/11 03:17:50;;;;;;;0.40;0.40;;;;;;;11.11;71.41;100753.50;5455065;26;20459;-65
2024/04/11 03:20:21;;;;;;;1.67;1.00;;;;;;;11.08;71.26;100753.44;5454714;26;20011;-65
2024/04/11 03:22:49;;;;;;;0.82;0.80;;;;;;;11.02;71.52;100761.00;5455064;26;20002;-66
2024/04/11 03:25:22;;;;;;;0.50;0.50;;;;;;;10.99;71.65;100758.44;5454852;26;20074;-65
2024/04/11 03:27:50;;;;;;;1.35;1.02;;;;;;;11.01;71.71;100760.16;5423259;26;19999;-65
2024/04/11 03:30:21;;;;;;;0.47;0.47;;;;;;;11.02;71.87;100763.56;5454799;26;20360;-65
2024/04/11 03:32:50;;;;;;;0.50;0.50;;;;;;;10.95;72.10;100759.19;5454952;26;20035;-65
2024/04/11 03:35:21;;;;;;;1.00;0.95;;;;;;;10.88;72.17;100765.06;5454838;26;20010;-66
2024/04/11 03:37:51;;;;;;;1.08;1.00;;;;;;;10.84;72.28;100765.84;5451834;26;20006;-65
2024/04/11 03:40:25;;;;;;;1.52;1.20;;;;;;;10.78;72.29;100764.91;5452852;26;20007;-65
2024/04/11 03:42:56;;;;;;;0.90;0.85;;;;;;;10.84;72.14;100773.50;5454992;26;20345;-65
2024/04/11 03:45:30;;;;;;;0.57;0.57;;;;;;;10.81;72.54;100771.78;5455301;26;20021;-65
2024/04/11 03:48:05;;;;;;;0.70;0.70;;;;;;;10.75;72.64;100785.28;5453157;26;20002;-65
2024/04/11 03:50:35;;;;;;;1.88;1.77;;;;;;;10.71;72.49;100778.41;5452850;26;20010;-65
2024/04/11 03:53:05;;;;;;;0.70;0.70;;;;;;;10.67;72.96;100775.78;5454647;26;20075;-65
2024/04/11 03:55:47;;;;;;;0.57;0.57;;;;;;;10.67;72.87;100776.66;5454507;26;19999;-65
2024/04/11 03:58:16;;;;;;;0.70;0.63;;;;;;;10.69;73.27;100787.75;5454948;26;20015;-65
2024/04/11 04:00:47;;;;;;;1.13;1.00;;;;;;;10.68;73.37;100785.16;5454362;26;20006;-65
2024/04/11 04:03:16;;;;;;;1.25;1.15;;;;;;;10.61;72.78;100786.75;5454542;26;20092;-66
2024/04/11 04:05:47;;;;;;;1.15;1.05;;;;;;;10.58;73.26;100781.59;5454427;26;20104;-65
2024/04/11 04:08:15;;;;;;;0.75;0.75;;;;;;;10.52;73.49;100783.19;5418480;26;20461;-65
2024/04/11 04:10:49;;;;;;;2.47;1.10;;;;;;;10.45;73.27;100789.03;5416561;26;20035;-65
2024/04/11 04:13:17;;;;;;;0.50;0.50;;;;;;;10.30;73.87;100788.75;5418178;26;20039;-65
2024/04/11 04:15:47;;;;;;;1.00;0.90;;;;;;;10.35;74.05;100798.22;5418160;26;20015;-66
2024/04/11 04:18:15;;;;;;;1.25;1.15;;;;;;;10.34;74.31;100804.13;5418626;26;20104;-66
2024/04/11 04:20:46;;;;;;;1.15;1.05;;;;;;;10.36;74.67;100804.19;5418036;26;20014;-66
2024/04/11 04:23:14;;;;;;;0.93;0.90;;;;;;;10.39;74.66;100810.19;5416633;26;20004;-66
2024/04/11 04:25:47;;;;;;;1.55;0.98;;;;;;;10.42;74.71;100806.81;5418404;26;20446;-65
2024/04/11 04:28:18;;;;;;;0.50;0.50;;;;;;;10.42;74.51;100805.13;5418072;26;20003;-66
2024/04/11 04:30:49;;;;;;;1.10;1.02;;;;;;;10.45;74.62;100807.75;5416482;26;20007;-65
2024/04/11 04:33:17;;;;;;;1.65;1.13;;;;;;;10.44;74.75;100807.72;5415891;26;20341;-65
2024/04/11 04:35:48;;;;;;;1.00;0.90;;;;;;;10.47;74.84;100807.78;5417932;26;20005;-65
2024/04/11 04:38:16;;;;;;;1.17;1.10;;;;;;;10.42;74.92;100819.59;5418318;26;20011;-65
2024/04/11 04:40:47;;;;;;;0.57;0.57;;;;;;;10.37;75.25;100790.56;5417825;26;20003;-65
2024/04/11 04:43:15;;;;;;;1.42;1.20;;;;;;;10.54;75.13;100815.56;5417954;26;20000;-66
2024/04/11 04:45:49;;;;;;;1.30;0.98;;;;;;;10.57;75.10;100809.66;5417717;26;20049;-65
2024/04/11 04:48:20;;;;;;;1.63;1.45;;;;;;;10.65;75.20;100824.25;5418074;26;20000;-65
2024/04/11 04:50:48;;;;;;;3.85;2.65;;;;;;;10.70;74.67;100830.31;5419529;26;19999;-66
2024/04/11 04:53:19;;;;;;;1.67;1.25;;;;;;;10.74;75.09;100826.13;5420965;26;20032;-66
2024/04/11 04:55:48;;;;;;;1.70;1.58;;;;;;;10.78;74.99;100831.31;5421433;26;20011;-65
2024/04/11 04:58:22;;;;;;;2.83;1.88;;;;;;;10.85;75.19;100831.41;5419175;26;20034;-65
2024/04/11 05:00:53;;;;;;;1.10;1.00;;;;;;;10.90;74.83;100835.75;5419220;26;20028;-66
2024/04/11 05:03:28;;;;;;;1.80;1.13;;;;;;;10.93;74.81;100840.06;5420906;26;20004;-66
2024/04/11 05:05:56;;;;;;;3.30;1.52;;;;;;;10.94;74.70;100842.63;5419246;26;20000;-66
2024/04/11 05:08:30;;;;;;;1.42;1.33;;;;;;;10.99;74.96;100845.28;5420974;26;20003;-66
2024/04/11 05:11:10;;;;;;;1.52;1.42;;;;;;;11.03;74.65;100847.03;5421158;26;20075;-66
2024/04/11 05:13:42;;;;;;;1.42;1.33;;;;;;;11.13;74.80;100843.81;5419187;26;20446;-66
2024/04/11 05:16:19;;;;;;;1.77;1.40;;;;;;;11.17;74.80;100840.44;5421161;26;20014;-66
2024/04/11 05:18:53;;;;;;;0.80;0.80;;;;;;;11.23;74.01;100850.75;5421089;26;20015;-66
2024/04/11 05:21:24;;;;;;;0.65;0.60;;;;;;;11.25;73.98;100854.22;5420995;26;20007;-66
2024/04/11 05:23:56;;;;;;;0.90;0.90;;;;;;;11.30;73.84;100858.53;5420945;26;20013;-66
2024/04/11 05:26:25;;;;;;;0.80;0.80;;;;;;;11.36;74.00;100862.91;5418978;26;20011;-66
2024/04/11 05:28:57;;;;;;;1.67;1.42;;;;;;;11.38;74.17;100856.97;5420637;26;20419;-66
2024/04/11 05:31:29;;;;;;;1.23;1.02;;;;;;;11.52;73.83;100867.38;5420458;26;20011;-66
2024/04/11 05:34:06;;;;;;;3.50;2.25;;;;;;;11.60;73.83;100870.06;5420405;26;20371;-66
2024/04/11 05:36:39;;;;;;;1.38;1.27;;;;;;;11.59;73.57;100866.63;5420561;26;20363;-65
2024/04/11 05:39:14;;;;;;;1.02;0.93;;;;;;;11.64;73.01;100875.22;5420833;26;20446;-65
2024/04/11 05:41:45;;;;;;;2.85;1.85;;;;;;;11.59;72.96;100866.63;5420743;26;20445;-65
2024/04/11 05:44:15;;;;;;;;;;;;;;;11.58;72.90;100880.28;5419225;26;19999;-65
2024/04/11 05:46:47;;;;;;;2.47;2.13;;;;;;;11.61;72.59;100880.31;5420412;26;20379;-65
2024/04/11 05:49:17;;;;;;;1.20;1.10;;;;;;;11.75;72.46;100883.97;5420669;26;20003;-65
2024/04/11 05:51:46;;;;;;;1.65;1.55;;;;;;;11.89;72.88;100887.56;5420074;26;20072;-66
2024/04/11 05:54:16;;;;;;;2.78;2.08;;;;;;;11.96;72.19;100884.25;5418256;26;20015;-65
2024/04/11 05:56:48;;;;;;;1.30;1.20;;;;;;;12.08;72.06;100884.41;5420132;26;20018;-66
2024/04/11 05:59:19;;;;;;;6.43;2.60;;;;;;;12.24;71.37;100890.56;5419541;26;20051;-66
2024/04/11 06:01:50;;;;;;;0.73;0.73;;;;;;;12.27;71.26;100882.06;5419673;26;20019;-65
2024/04/11 06:04:25;;;;;;;0.75;0.75;;;;;;;12.32;71.07;100886.41;5436174;26;20007;-66
2024/04/11 06:06:54;;;;;;;1.20;1.10;;;;;;;12.40;70.96;100886.47;5455908;26;20007;-65
2024/04/11 06:09:26;;;;;;;1.77;0.90;;;;;;;12.48;70.49;100890.84;5456316;26;19998;-65
2024/04/11 06:11:54;;;;;;;2.00;1.45;;;;;;;12.65;70.60;100898.69;5454259;26;19999;-65
2024/04/11 06:14:24;;;;;;;4.63;2.25;;;;;;;12.67;69.85;100891.88;5455716;26;20035;-65
2024/04/11 06:16:55;;;;;;;1.10;1.00;;;;;;;12.82;69.64;100896.28;5455575;26;20015;-65
2024/04/11 06:19:26;;;;;;;0.63;0.63;;;;;;;12.94;69.57;100904.97;5455773;26;20079;-66
2024/04/11 06:21:54;;;;;;;2.13;1.92;;;;;;;13.04;68.80;100904.22;5455890;26;20075;-66
2024/04/11 06:24:25;;;;;;;2.10;1.10;;;;;;;13.10;69.02;100908.56;5455733;26;20044;-64
2024/04/11 06:26:53;;;;;;;1.27;1.10;;;;;;;13.12;68.72;100897.50;5455816;26;20328;-63
2024/04/11 06:29:24;;;;;;;2.22;0.90;;;;;;;13.21;68.11;100909.53;5455545;26;20011;-66
2024/04/11 06:31:54;;;;;;;1.85;1.27;;;;;;;13.28;68.40;100914.72;5455443;26;20003;-65
2024/04/11 06:34:25;;;;;;;2.72;1.52;;;;;;;13.38;67.91;100911.38;5453683;26;20407;-64
2024/04/11 06:36:56;;;;;;;2.75;1.60;;;;;;;13.51;67.89;100911.47;5423902;26;20453;-65
2024/04/11 06:39:26;;;;;;;1.67;1.58;;;;;;;13.63;67.33;100907.25;5455535;26;20002;-65
2024/04/11 06:41:55;;;;;;;0.90;0.90;;;;;;;13.85;67.67;100915.94;5455557;26;20022;-66
2024/04/11 06:44:26;;;;;;;2.33;1.13;;;;;;;14.06;67.00;100913.50;5455726;26;20079;-65
2024/04/11 06:46:57;;;;;;;1.20;1.10;;;;;;;14.13;66.54;100919.53;5455325;26;20209;-65
2024/04/11 06:49:28;;;;;;;1.50;1.40;;;;;;;14.16;66.67;100928.09;5455378;26;20039;-65
2024/04/11 06:51:56;;;;;;;4.22;2.35;;;;;;;14.29;66.78;100932.44;5455391;26;20068;-65
2024/04/11 06:54:29;;;;;;;1.98;1.73;;;;;;;14.40;66.72;100940.22;5423433;26;20009;-66
2024/04/11 06:56:58;;;;;;;2.10;1.75;;;;;;;14.42;66.33;100939.38;5455362;26;20002;-67
2024/04/11 06:59:29;;;;;;;0.67;0.67;;;;;;;14.42;67.03;100939.38;5455168;26;20003;-64
2024/04/11 07:02:05;;;;;;;2.08;1.80;;;;;;;14.43;67.06;100932.53;5455181;26;20011;-65
2024/04/11 07:04:37;;;;;;;0.63;0.63;;;;;;;14.54;67.00;100928.31;5455369;26;20018;-65
2024/04/11 07:07:08;;;;;;;2.60;1.55;;;;;;;14.73;67.09;100924.94;5455062;26;20441;-66
2024/04/11 07:09:42;;;;;;;2.08;1.65;;;;;;;15.00;66.49;100924.09;5455365;26;20017;-66
2024/04/11 07:12:10;;;;;;;0.82;0.80;;;;;;;15.08;65.96;100922.41;5454667;26;20014;-65
2024/04/11 07:14:41;;;;;;;3.50;1.75;;;;;;;15.14;65.77;100909.56;5455402;26;20072;-66
2024/04/11 07:17:12;;;;;;;1.55;1.35;;;;;;;15.26;65.33;100917.28;5455179;26;20011;-64
2024/04/11 07:19:43;;;;;;;2.17;1.58;;;;;;;15.31;64.58;100925.84;5454976;26;19999;-66
2024/04/11 07:22:18;;;;;;;2.33;1.60;;;;;;;15.25;64.07;100915.56;5455036;26;20014;-66
2024/04/11 07:24:48;;;;;;;2.00;1.23;;;;;;;15.26;63.85;100897.53;5455338;26;20011;-65
2024/04/11 07:27:17;;;;;;;0.80;0.70;;;;;;;15.54;63.16;100929.31;5455287;26;20009;-65
2024/04/11 07:29:48;;;;;;;2.08;1.30;;;;;;;15.69;62.22;100929.28;5453363;26;20444;-66
2024/04/11 07:32:21;;;;;;;1.45;0.95;;;;;;;15.69;61.20;100934.41;5454801;26;19999;-65
2024/04/11 07:34:51;;;;;;;1.48;1.05;;;;;;;15.73;60.99;100931.00;5454938;26;20022;-66
2024/04/11 07:37:25;;;;;;;1.55;1.20;;;;;;;15.92;61.12;100932.69;5454755;26;20433;-64
2024/04/11 07:40:00;;;;;;;2.45;1.38;;;;;;;16.18;60.54;100931.72;5454762;26;20007;-65
2024/04/11 07:42:48;;;;;;;1.23;1.10;;;;;;;16.28;59.98;100931.69;5454951;26;20010;-65
2024/04/11 07:45:18;;;;;;;1.15;1.05;;;;;;;16.34;59.67;100925.69;5438712;26;20519;-65
2024/04/11 07:47:49;;;;;;;1.20;1.10;;;;;;;16.27;60.09;100929.16;5434846;26;20363;-66
2024/04/11 07:50:29;;;;;;;0.98;0.88;;;;;;;16.34;59.33;100930.84;5435654;26;20080;-65
2024/04/11 07:52:57;;;;;;;0.93;0.70;;;;;;;16.35;59.28;100937.69;5432354;26;20011;-65
2024/04/11 07:55:27;;;;;;;1.25;1.08;;;;;;;16.37;59.36;100941.09;5432710;26;20019;-65
2024/04/11 07:57:58;;;;;;;0.77;0.77;;;;;;;16.52;59.36;100941.94;5435227;26;20003;-64
2024/04/11 08:00:30;;;;;;;14.82;2.00;;;;;;;16.66;59.26;100940.16;5434495;26;20004;-65
2024/04/11 08:03:02;;;;;;;1.05;0.95;;;;;;;16.91;58.90;100946.03;5434102;26;20003;-66
2024/04/11 08:05:33;;;;;;;1.77;1.05;;;;;;;16.80;58.54;100945.22;5418037;26;20000;-65
2024/04/11 08:08:01;;;;;;;0.85;0.70;;;;;;;16.83;57.76;100950.38;5426800;26;20004;-65
2024/04/11 08:10:32;;;;;;;1.15;0.90;;;;;;;16.69;58.18;100952.16;5452360;26;19999;-65
2024/04/11 08:13:00;;;;;;;0.50;0.50;;;;;;;16.68;58.52;100953.03;5452194;26;20415;-65
2024/04/11 08:15:30;;;;;;;1.52;1.38;;;;;;;16.80;58.58;100957.25;5454274;26;20011;-65
2024/04/11 08:18:03;;;;;;;0.63;0.60;;;;;;;16.94;58.07;100961.47;5454249;26;20015;-65
2024/04/11 08:20:34;;;;;;;1.73;1.52;;;;;;;17.01;58.08;100964.88;5454030;26;20002;-65
2024/04/11 08:23:03;;;;;;;2.00;1.10;;;;;;;17.16;57.65;100963.03;5453402;26;20002;-65
2024/04/11 08:25:44;;;;;;;2.43;2.03;;;;;;;17.30;57.78;100958.63;5454141;26;19998;-64
2024/04/11 08:28:13;;;;;;;1.40;1.30;;;;;;;17.34;57.34;100962.94;5454089;26;20046;-65
2024/04/11 08:30:44;;;;;;;1.90;1.33;;;;;;;17.39;57.22;100961.16;5422149;26;20324;-65
2024/04/11 08:33:14;;;;;;;1.77;1.35;;;;;;;17.60;57.42;100961.88;5453847;26;20405;-65
2024/04/11 08:35:47;;;;;;;0.93;0.90;;;;;;;17.83;58.13;100959.94;5452233;26;20003;-65
2024/04/11 08:38:18;;;;;;;1.98;1.20;;;;;;;17.88;57.46;100964.19;5453881;26;20074;-65
2024/04/11 08:40:49;;;;;;;1.33;1.23;;;;;;;17.79;57.24;100956.53;5454007;26;19999;-66
2024/04/11 08:43:20;;;;;;;0.65;0.65;;;;;;;17.94;57.09;100955.53;5452198;26;19999;-65
2024/04/11 08:45:51;;;;;;;0.90;0.88;;;;;;;18.16;57.04;100956.16;5454112;26;20506;-65
2024/04/11 08:48:23;;;;;;;1.08;0.98;;;;;;;18.17;56.38;100958.72;5453795;26;20500;-65
2024/04/11 08:50:55;;;;;;;1.80;1.30;;;;;;;18.44;57.72;100971.31;5453394;26;20006;-66
2024/04/11 08:53:25;;;;;;;1.40;0.85;;;;;;;18.51;56.40;100965.22;5451484;26;20074;-65
2024/04/11 08:56:00;;;;;;;1.27;1.17;;;;;;;18.58;56.99;100971.19;5451825;26;20011;-65
2024/04/11 08:58:29;;;;;;;0.75;0.75;;;;;;;18.61;56.82;100961.66;5451631;26;20018;-66
2024/04/11 09:01:01;;;;;;;1.60;1.33;;;;;;;18.56;55.59;100975.53;5451532;26;20080;-65
2024/04/11 09:03:32;;;;;;;2.03;1.17;;;;;;;18.59;55.94;100968.59;5451438;26;20325;-66
2024/04/11 09:06:04;;;;;;;4.88;4.28;;;;;;;18.85;56.58;100969.97;5453372;26;20015;-66
2024/04/11 09:08:32;;;;;;;2.55;2.30;;;;;;;18.77;55.29;100961.44;5453520;26;19999;-65
2024/04/11 09:11:04;;;;;;;1.67;1.08;;;;;;;18.65;55.86;100942.63;5453268;26;20003;-66
2024/04/11 09:13:33;;;;;;;2.75;2.53;;;;;;;18.89;56.26;100954.38;5453162;26;20003;-65
2024/04/11 09:16:06;;;;;;;4.22;3.20;;;;;;;19.00;55.75;100964.59;5453305;26;19999;-66
2024/04/11 09:18:36;;;;;;;2.78;1.65;;;;;;;19.19;56.65;100960.84;5453348;26;20027;-65
2024/04/11 09:21:08;;;;;;;0.55;0.55;;;;;;;19.30;55.40;100958.94;5452988;26;19999;-65
2024/04/11 09:23:44;;;;;;;0.73;0.73;;;;;;;19.08;55.07;100952.38;5453035;26;20003;-66
2024/04/11 09:26:17;;;;;;;0.68;0.68;;;;;;;19.19;55.70;100955.66;5453075;26;20003;-65
2024/04/11 09:28:48;;;;;;;0.93;0.82;;;;;;;19.37;55.17;100950.22;5451374;26;20007;-67
2024/04/11 09:31:21;;;;;;;1.90;1.45;;;;;;;19.43;54.50;100950.13;5450909;26;20359;-66
2024/04/11 09:33:53;;;;;;;1.00;0.93;;;;;;;19.50;54.37;100946.56;5452802;26;20079;-65
2024/04/11 09:36:27;;;;;;;2.45;0.98;;;;;;;19.76;54.50;100949.53;5454572;26;20093;-64
2024/04/11 09:39:05;;;;;;;2.47;1.05;;;;;;;19.74;53.27;100960.81;5456810;26;20021;-65
2024/04/11 09:41:40;;;;;;;1.30;1.20;;;;;;;19.80;53.88;100960.69;5456609;26;19999;-64
2024/04/11 09:44:09;;;;;;;0.55;0.55;;;;;;;20.08;54.01;100952.38;5456319;26;20003;-65
2024/04/11 09:46:42;;;;;;;0.73;0.73;;;;;;;20.03;52.75;100933.47;5456205;26;20074;-65
2024/04/11 09:49:21;;;;;;;0.60;0.60;;;;;;;19.83;51.69;100937.31;5456296;26;20003;-64
2024/04/11 09:51:55;;;;;;;0.50;0.50;;;;;;;19.82;52.51;100946.81;5456736;26;20011;-64
2024/04/11 09:54:23;;;;;;;0.70;0.70;;;;;;;20.02;52.84;100942.16;5456257;26;20047;-64
2024/04/11 09:56:56;;;;;;;0.73;0.55;;;;;;;20.17;52.14;100950.50;5456599;26;19999;-64
2024/04/11 09:59:26;;;;;;;2.40;1.15;;;;;;;20.35;52.06;100953.63;5456395;26;20027;-65
2024/04/11 10:02:01;;;;;;;1.05;0.95;;;;;;;20.49;51.54;100942.97;5454231;26;19999;-65
2024/04/11 10:04:36;;;;;;;7.32;1.83;;;;;;;20.42;51.69;100949.19;5454207;26;20071;-64
2024/04/11 10:07:09;;;;;;;0.70;0.70;;;;;;;20.48;51.47;100943.84;5456092;26;20003;-64
2024/04/11 10:09:47;;;;;;;1.33;1.17;;;;;;;20.80;51.58;100945.75;5454173;26;20011;-64
2024/04/11 10:12:20;;;;;;;0.47;0.47;;;;;;;20.81;50.70;100945.72;5455721;26;20011;-64
2024/04/11 10:14:49;;;;;;;1.77;1.17;;;;;;;20.85;51.16;100942.16;5455917;26;20018;-64
2024/04/11 10:17:21;;;;;;;3.47;1.40;;;;;;;20.91;50.47;100944.63;5455905;26;19999;-64
2024/04/11 10:19:53;;;;;;;1.02;0.93;;;;;;;21.08;51.17;100934.75;5455640;26;20018;-64
2024/04/11 10:22:25;;;;;;;5.47;1.95;;;;;;;21.54;53.07;100925.81;5455900;26;20015;-64
2024/04/11 10:25:06;;;;;;;1.55;1.33;;;;;;;21.63;50.57;100923.81;5455707;26;19999;-65
2024/04/11 10:27:37;;;;;;;;;;;;;;;21.40;49.21;100922.72;5454531;26;20038;-64
2024/04/11 10:30:09;;;;;;;0.82;0.82;;;;;;;21.38;50.30;100921.91;5455663;26;20346;-64
2024/04/11 10:32:47;;;;;;;1.27;1.17;;;;;;;21.18;49.60;100920.66;5455671;26;20477;-64
2024/04/11 10:35:23;;;;;;;0.73;0.70;;;;;;;21.08;49.21;100924.34;5455537;26;20018;-65
2024/04/11 10:37:55;;;;;;;1.35;1.25;;;;;;;20.98;49.55;100922.81;5455651;26;20003;-64
2024/04/11 10:40:24;;;;;;;1.75;1.50;;;;;;;21.30;51.58;100920.34;5455838;26;19998;-64
2024/04/11 10:45:42;;;;;;;2.58;1.65;;;;;;;21.82;49.83;100913.78;5455484;26;20009;-64
2024/04/11 10:48:14;;;;;;;1.25;1.15;;;;;;;21.80;49.16;100910.38;5453667;26;20513;-65
2024/04/11 10:50:48;;;;;;;0.63;0.63;;;;;;;21.83;48.50;100921.56;5453802;26;20003;-65
2024/04/11 10:53:20;;;;;;;0.70;0.70;;;;;;;21.60;48.22;100928.22;5455272;26;20071;-64
2024/04/11 10:55:55;;;;;;;0.70;0.70;;;;;;;21.58;48.52;100932.63;5455575;26;20010;-64
2024/04/11 10:58:28;;;;;;;1.02;0.93;;;;;;;21.58;48.46;100919.63;5455591;26;20003;-64
2024/04/11 11:03:50;;;;;;;0.50;0.50;;;;;;;21.90;48.01;100928.34;5455247;26;20009;-65
2024/04/11 11:06:24;;;;;;;1.73;1.08;;;;;;;21.76;47.73;100929.56;5455654;26;20449;-64
2024/04/11 11:09:10;;;;;;;0.60;0.60;;;;;;;21.97;49.40;100918.63;5454962;26;20402;-64
2024/04/11 11:11:41;;;;;;;0.50;0.50;;;;;;;22.32;49.75;100922.81;5453792;26;19998;-64
2024/04/11 11:14:14;;;;;;;;;;;;;;;22.64;49.78;100918.41;5455511;26;20018;-64
2024/04/11 11:16:44;;;;;;;0.68;0.57;;;;;;;22.95;49.73;100913.09;5454958;26;19993;-64
2024/04/11 11:19:16;;;;;;;0.75;0.75;;;;;;;23.13;49.30;100914.28;5453532;26;20030;-64
2024/04/11 11:21:50;;;;;;;0.50;0.50;;;;;;;23.21;48.26;100909.66;5454713;26;20580;-64
2024/04/11 11:24:23;;;;;;;2.25;1.70;;;;;;;23.43;48.60;100910.69;5454960;26;20009;-64
2024/04/11 11:26:56;;;;;;;1.15;0.90;;;;;;;23.17;46.22;100906.31;5454949;26;20457;-64
2024/04/11 11:29:28;;;;;;;3.00;1.27;;;;;;;22.87;45.80;100911.63;5454886;26;20015;-65
2024/04/11 11:32:01;;;;;;;1.33;1.15;;;;;;;22.86;46.20;100907.31;5452851;26;20002;-65
2024/04/11 11:34:35;;;;;;;0.73;0.73;;;;;;;22.89;46.78;100907.25;5455100;26;20108;-65
2024/04/11 11:37:12;;;;;;;6.03;0.90;;;;;;;23.02;47.46;100913.75;5455259;26;20006;-65
2024/04/11 11:39:50;;;;;;;0.93;0.88;;;;;;;23.22;48.62;100896.59;5454586;26;20076;-64
2024/04/11 11:42:23;;;;;;;3.08;1.52;;;;;;;23.53;49.21;100900.78;5454837;26;20337;-65
2024/04/11 11:47:36;;;;;;;1.02;0.90;;;;;;;23.15;45.46;100899.44;5454729;26;20054;-64
2024/04/11 11:50:16;;;;;;;1.17;1.08;;;;;;;22.91;45.47;100900.22;5454445;26;20329;-65
2024/04/11 11:52:49;;;;;;;0.57;0.57;;;;;;;22.97;45.85;100895.66;5454451;26;20013;-65
2024/04/11 11:55:25;;;;;;;0.47;0.47;;;;;;;22.95;45.61;100899.22;5454606;26;20003;-65